This is the latest recevied weather packets stored in our database for station/object IZ5MMH-1. If no packets are shown the sender has not sent any weather packets the latest 10 day(s).
| Time | Temp. | Humidity | Pressure | Rain* | Wind** | Luminosity | Snow |
|---|---|---|---|---|---|---|---|
| 1787470097 | 30° C | 37% | 1017.5 hPa | - | - | - | - |
| 1787469497 | 30° C | 35% | 1017.5 hPa | - | - | - | - |
| 1787468897 | 29.44° C | 37% | 1017.7 hPa | - | - | - | - |
| 1787468296 | 29.44° C | 42% | 1017.6 hPa | - | - | - | - |
| 1787467696 | 28.89° C | 43% | 1017.7 hPa | - | - | - | - |
| 1787467097 | 28.33° C | 42% | 1017.6 hPa | - | - | - | - |
| 1787466496 | 28.33° C | 41% | 1017.6 hPa | - | - | - | - |
| 1787465896 | 27.22° C | 46% | 1017.4 hPa | - | - | - | - |
| 1787465296 | 26.67° C | 47% | 1017.5 hPa | - | - | - | - |
| 1787464696 | 25.56° C | 51% | 1017.5 hPa | - | - | - | - |
| 1787464097 | 24.44° C | 53% | 1017.5 hPa | - | - | - | - |
| 1787463495 | 22.22° C | 57% | 1017.5 hPa | - | - | - | - |
| 1787462895 | 20° C | 63% | 1017.5 hPa | - | - | - | - |
| 1787462296 | 16.67° C | 71% | 1017.6 hPa | - | - | - | - |
| 1787461698 | 15.56° C | 68% | 1017.6 hPa | - | - | - | - |
| 1787461157 | 15° C | 71% | 1017.6 hPa | - | - | - | - |
| 1787459896 | 15° C | 71% | 1017.4 hPa | - | - | - | - |
| 1787459297 | 15° C | 69% | 1017.4 hPa | - | - | - | - |
| 1787458696 | 15° C | 72% | 1017.3 hPa | - | - | - | - |
| 1787458096 | 15° C | 69% | 1017.2 hPa | - | - | - | - |
| 1787457496 | 15.56° C | 69% | 1017.3 hPa | - | - | - | - |
| 1787456896 | 15.56° C | 68% | 1017.1 hPa | - | - | - | - |
| 1787456297 | 15.56° C | 69% | 1017.3 hPa | - | - | - | - |
| 1787455695 | 15.56° C | 71% | 1017.2 hPa | - | - | - | - |
| 1787455097 | 16.11° C | 67% | 1017.1 hPa | - | - | - | - |
* Rain since midnight (hover to see other rain measurements)
** Current wind speed in m/s (hover to see current wind gust speed)